<?xml version="1.0" encoding="UTF-8" standalone="no" ?>
<gpx xmlns="http://www.topografix.com/GPX/1/1" xmlns:xsi="http://www.w3.org/2001/XMLSchema-instance" xsi:schemaLocation="http://www.topografix.com/GPX/1/1 http://www.topografix.com/GPX/1/1/gpx.xsd" version="1.1" creator="VisuGPX - https://www.visugpx.com">
  <metadata>
    <name>Sablieres - Les hameaux</name>
    <desc><![CDATA[Boucle dans les hameaux de Sablières autour de la Drobie et dans le Patrimoine bati.]]></desc>
  </metadata>
  <wpt lat="44.52917" lon="4.04473">
    <ele>660.88</ele>
    <name><![CDATA[0000323]]></name>
    <desc><![CDATA[]]></desc>
    <type><![CDATA[Point de départ]]></type>
  </wpt>
  <wpt lat="44.52929" lon="4.04474">
    <ele>651.18</ele>
    <name><![CDATA[0000324]]></name>
    <desc><![CDATA[<br /><h3>Nom: Segment 1</h3><br /><p>Temps de départ: 01/17/2016 09:35</p><p>Temps d'arrivée: 01/17/2016 14:49</p><p>Distance: 12km (05:13)</p><p>Temps déplacement: 03:34</p><p>Vitesse moyenne: 2,3km/h</p><p>Vitesse moyenne: 3,3km/h</p><p>Vitess Max.: 7,5km/h</p><p>Altitude minimale: 432m</p><p>Altitude maximale: 704m</p><p>Vitesse d'élévation: 262,2m/h</p><p>Vitesse de descente: -221,7m/h</p><p>Gain Altitude: 567m</p><p>Perte Altitude: -561m</p><p>Temps d'élévation: 02:09</p><p>Temps de descente: 02:32</p>]]></desc>
    <type><![CDATA[Point d'arrivée]]></type>
  </wpt>
  <trk>
    <name><![CDATA[Sablieres]]></name>
    <desc><![CDATA[<h1>OruxMaps</h1><br /><hr align="center" width="480" style="height: 2px; width: 517px"/><h2>Nom: Sablieres</h2><br /><p>Temps de départ: 01/17/2016 09:35</p><p>Temps d'arrivée: 01/17/2016 14:49</p><p>Distance: 12km (05:13)</p><p>Temps déplacement: 03:34</p><p>Vitesse moyenne: 2,3km/h</p><p>Vitesse moyenne: 3,3km/h</p><p>Vitess Max.: 7,5km/h</p><p>Altitude minimale: 432m</p><p>Altitude maximale: 704m</p><p>Vitesse d'élévation: 262,2m/h</p><p>Vitesse de descente: -221,7m/h</p><p>Gain Altitude: 567m</p><p>Perte Altitude: -561m</p><p>Temps d'élévation: 02:09</p><p>Temps de descente: 02:32</p><hr align="center" width="480" style="height: 2px; width: 517px"/>]]></desc>
    <trkseg>
      <trkpt lat="44.52917" lon="4.04473">
        <ele>660.88</ele>
        <time>2016-01-17T08:35:47Z</time>
      </trkpt>
      <trkpt lat="44.52936" lon="4.04474">
        <ele>649.47</ele>
        <time>2016-01-17T08:37:27Z</time>
      </trkpt>
      <trkpt lat="44.52954" lon="4.04465">
        <ele>653.42</ele>
        <time>2016-01-17T08:37:52Z</time>
      </trkpt>
      <trkpt lat="44.52972" lon="4.0446">
        <ele>652.1</ele>
        <time>2016-01-17T08:38:13Z</time>
      </trkpt>
      <trkpt lat="44.52991" lon="4.04458">
        <ele>650.39</ele>
        <time>2016-01-17T08:38:40Z</time>
      </trkpt>
      <trkpt lat="44.53008" lon="4.04449">
        <ele>653.71</ele>
        <time>2016-01-17T08:39:04Z</time>
      </trkpt>
      <trkpt lat="44.53024" lon="4.04438">
        <ele>650.88</ele>
        <time>2016-01-17T08:39:27Z</time>
      </trkpt>
      <trkpt lat="44.53042" lon="4.04427">
        <ele>651.28</ele>
        <time>2016-01-17T08:39:48Z</time>
      </trkpt>
      <trkpt lat="44.53055" lon="4.04408">
        <ele>655.11</ele>
        <time>2016-01-17T08:40:02Z</time>
      </trkpt>
      <trkpt lat="44.53073" lon="4.04401">
        <ele>648.11</ele>
        <time>2016-01-17T08:40:31Z</time>
      </trkpt>
      <trkpt lat="44.5309" lon="4.04393">
        <ele>658.93</ele>
        <time>2016-01-17T08:40:56Z</time>
      </trkpt>
      <trkpt lat="44.53108" lon="4.04399">
        <ele>656.68</ele>
        <time>2016-01-17T08:41:17Z</time>
      </trkpt>
      <trkpt lat="44.53128" lon="4.04404">
        <ele>655.81</ele>
        <time>2016-01-17T08:41:31Z</time>
      </trkpt>
      <trkpt lat="44.53146" lon="4.0441">
        <ele>662.23</ele>
        <time>2016-01-17T08:41:41Z</time>
      </trkpt>
      <trkpt lat="44.53165" lon="4.04412">
        <ele>663.83</ele>
        <time>2016-01-17T08:41:55Z</time>
      </trkpt>
      <trkpt lat="44.53181" lon="4.044">
        <ele>668.56</ele>
        <time>2016-01-17T08:42:15Z</time>
      </trkpt>
      <trkpt lat="44.53198" lon="4.04389">
        <ele>672.02</ele>
        <time>2016-01-17T08:42:38Z</time>
      </trkpt>
      <trkpt lat="44.53216" lon="4.04383">
        <ele>673.33</ele>
        <time>2016-01-17T08:42:57Z</time>
      </trkpt>
      <trkpt lat="44.53234" lon="4.04386">
        <ele>675.33</ele>
        <time>2016-01-17T08:43:12Z</time>
      </trkpt>
      <trkpt lat="44.53252" lon="4.04388">
        <ele>672.94</ele>
        <time>2016-01-17T08:43:32Z</time>
      </trkpt>
      <trkpt lat="44.53271" lon="4.04385">
        <ele>675.76</ele>
        <time>2016-01-17T08:43:52Z</time>
      </trkpt>
      <trkpt lat="44.5329" lon="4.04383">
        <ele>683.59</ele>
        <time>2016-01-17T08:44:14Z</time>
      </trkpt>
      <trkpt lat="44.53279" lon="4.04363">
        <ele>687.17</ele>
        <time>2016-01-17T08:44:48Z</time>
      </trkpt>
      <trkpt lat="44.5329" lon="4.04343">
        <ele>694.31</ele>
        <time>2016-01-17T08:45:41Z</time>
      </trkpt>
      <trkpt lat="44.53309" lon="4.04341">
        <ele>703.41</ele>
        <time>2016-01-17T08:46:03Z</time>
      </trkpt>
      <trkpt lat="44.53327" lon="4.04335">
        <ele>704.72</ele>
        <time>2016-01-17T08:46:24Z</time>
      </trkpt>
      <trkpt lat="44.53345" lon="4.04333">
        <ele>703.51</ele>
        <time>2016-01-17T08:46:55Z</time>
      </trkpt>
      <trkpt lat="44.53327" lon="4.04338">
        <ele>699.66</ele>
        <time>2016-01-17T08:48:19Z</time>
      </trkpt>
      <trkpt lat="44.53309" lon="4.04344">
        <ele>698.69</ele>
        <time>2016-01-17T08:48:41Z</time>
      </trkpt>
      <trkpt lat="44.53327" lon="4.0434">
        <ele>702.32</ele>
        <time>2016-01-17T08:49:17Z</time>
      </trkpt>
      <trkpt lat="44.53344" lon="4.04346">
        <ele>696.75</ele>
        <time>2016-01-17T08:50:17Z</time>
      </trkpt>
      <trkpt lat="44.53353" lon="4.04369">
        <ele>693.05</ele>
        <time>2016-01-17T08:50:58Z</time>
      </trkpt>
      <trkpt lat="44.53357" lon="4.04394">
        <ele>688.84</ele>
        <time>2016-01-17T08:51:43Z</time>
      </trkpt>
      <trkpt lat="44.53354" lon="4.04419">
        <ele>682.45</ele>
        <time>2016-01-17T08:52:31Z</time>
      </trkpt>
      <trkpt lat="44.53344" lon="4.04442">
        <ele>682.67</ele>
        <time>2016-01-17T08:53:03Z</time>
      </trkpt>
      <trkpt lat="44.53329" lon="4.04456">
        <ele>682.17</ele>
        <time>2016-01-17T08:53:27Z</time>
      </trkpt>
      <trkpt lat="44.53316" lon="4.04473">
        <ele>678.86</ele>
        <time>2016-01-17T08:53:55Z</time>
      </trkpt>
      <trkpt lat="44.53298" lon="4.04468">
        <ele>673.63</ele>
        <time>2016-01-17T08:54:45Z</time>
      </trkpt>
      <trkpt lat="44.53282" lon="4.04482">
        <ele>669.41</ele>
        <time>2016-01-17T08:55:23Z</time>
      </trkpt>
      <trkpt lat="44.53267" lon="4.04496">
        <ele>662.84</ele>
        <time>2016-01-17T08:56:01Z</time>
      </trkpt>
      <trkpt lat="44.5326" lon="4.0452">
        <ele>662.72</ele>
        <time>2016-01-17T08:56:29Z</time>
      </trkpt>
      <trkpt lat="44.5325" lon="4.04542">
        <ele>664.16</ele>
        <time>2016-01-17T08:56:53Z</time>
      </trkpt>
      <trkpt lat="44.53238" lon="4.04561">
        <ele>664.73</ele>
        <time>2016-01-17T08:57:08Z</time>
      </trkpt>
      <trkpt lat="44.53225" lon="4.04579">
        <ele>666.61</ele>
        <time>2016-01-17T08:57:25Z</time>
      </trkpt>
      <trkpt lat="44.53212" lon="4.04597">
        <ele>664.18</ele>
        <time>2016-01-17T08:57:46Z</time>
      </trkpt>
      <trkpt lat="44.532" lon="4.04616">
        <ele>658.68</ele>
        <time>2016-01-17T08:58:11Z</time>
      </trkpt>
      <trkpt lat="44.53186" lon="4.04632">
        <ele>662</ele>
        <time>2016-01-17T08:58:31Z</time>
      </trkpt>
      <trkpt lat="44.53176" lon="4.04653">
        <ele>655.09</ele>
        <time>2016-01-17T08:59:08Z</time>
      </trkpt>
      <trkpt lat="44.53167" lon="4.04676">
        <ele>656.67</ele>
        <time>2016-01-17T08:59:35Z</time>
      </trkpt>
      <trkpt lat="44.53158" lon="4.04699">
        <ele>654.17</ele>
        <time>2016-01-17T09:00:03Z</time>
      </trkpt>
      <trkpt lat="44.53151" lon="4.04725">
        <ele>646.21</ele>
        <time>2016-01-17T09:00:31Z</time>
      </trkpt>
      <trkpt lat="44.53143" lon="4.04748">
        <ele>642.15</ele>
        <time>2016-01-17T09:00:56Z</time>
      </trkpt>
      <trkpt lat="44.53134" lon="4.0477">
        <ele>642.18</ele>
        <time>2016-01-17T09:01:29Z</time>
      </trkpt>
      <trkpt lat="44.53124" lon="4.04792">
        <ele>639.49</ele>
        <time>2016-01-17T09:01:49Z</time>
      </trkpt>
      <trkpt lat="44.53116" lon="4.04816">
        <ele>642.25</ele>
        <time>2016-01-17T09:02:15Z</time>
      </trkpt>
      <trkpt lat="44.53107" lon="4.04839">
        <ele>643.72</ele>
        <time>2016-01-17T09:02:53Z</time>
      </trkpt>
      <trkpt lat="44.53096" lon="4.04859">
        <ele>638.72</ele>
        <time>2016-01-17T09:03:30Z</time>
      </trkpt>
      <trkpt lat="44.53089" lon="4.04882">
        <ele>638.25</ele>
        <time>2016-01-17T09:03:49Z</time>
      </trkpt>
      <trkpt lat="44.53085" lon="4.04907">
        <ele>632.54</ele>
        <time>2016-01-17T09:04:11Z</time>
      </trkpt>
      <trkpt lat="44.53086" lon="4.04933">
        <ele>625.87</ele>
        <time>2016-01-17T09:04:37Z</time>
      </trkpt>
      <trkpt lat="44.53085" lon="4.04959">
        <ele>620.7</ele>
        <time>2016-01-17T09:05:00Z</time>
      </trkpt>
      <trkpt lat="44.53087" lon="4.04984">
        <ele>621.67</ele>
        <time>2016-01-17T09:05:36Z</time>
      </trkpt>
      <trkpt lat="44.53089" lon="4.0501">
        <ele>615.69</ele>
        <time>2016-01-17T09:06:47Z</time>
      </trkpt>
      <trkpt lat="44.53102" lon="4.05028">
        <ele>609.69</ele>
        <time>2016-01-17T09:07:32Z</time>
      </trkpt>
      <trkpt lat="44.53107" lon="4.05052">
        <ele>614.68</ele>
        <time>2016-01-17T09:08:11Z</time>
      </trkpt>
      <trkpt lat="44.5309" lon="4.05064">
        <ele>612.21</ele>
        <time>2016-01-17T09:08:58Z</time>
      </trkpt>
      <trkpt lat="44.53074" lon="4.05052">
        <ele>610.69</ele>
        <time>2016-01-17T09:09:41Z</time>
      </trkpt>
      <trkpt lat="44.5306" lon="4.05069">
        <ele>604.41</ele>
        <time>2016-01-17T09:10:26Z</time>
      </trkpt>
      <trkpt lat="44.53073" lon="4.05086">
        <ele>608.82</ele>
        <time>2016-01-17T09:11:28Z</time>
      </trkpt>
      <trkpt lat="44.53088" lon="4.05099">
        <ele>604.3</ele>
        <time>2016-01-17T09:11:52Z</time>
      </trkpt>
      <trkpt lat="44.53106" lon="4.05104">
        <ele>605.55</ele>
        <time>2016-01-17T09:12:27Z</time>
      </trkpt>
      <trkpt lat="44.53124" lon="4.05105">
        <ele>602.01</ele>
        <time>2016-01-17T09:13:08Z</time>
      </trkpt>
      <trkpt lat="44.53142" lon="4.05108">
        <ele>604.47</ele>
        <time>2016-01-17T09:13:55Z</time>
      </trkpt>
      <trkpt lat="44.53161" lon="4.05104">
        <ele>607.35</ele>
        <time>2016-01-17T09:14:28Z</time>
      </trkpt>
      <trkpt lat="44.53179" lon="4.05105">
        <ele>605.25</ele>
        <time>2016-01-17T09:14:44Z</time>
      </trkpt>
      <trkpt lat="44.53197" lon="4.05106">
        <ele>602.5</ele>
        <time>2016-01-17T09:15:08Z</time>
      </trkpt>
      <trkpt lat="44.53215" lon="4.05111">
        <ele>592.62</ele>
        <time>2016-01-17T09:15:22Z</time>
      </trkpt>
      <trkpt lat="44.53232" lon="4.05118">
        <ele>595.62</ele>
        <time>2016-01-17T09:15:39Z</time>
      </trkpt>
      <trkpt lat="44.53251" lon="4.0512">
        <ele>596.81</ele>
        <time>2016-01-17T09:16:10Z</time>
      </trkpt>
      <trkpt lat="44.53271" lon="4.05119">
        <ele>595</ele>
        <time>2016-01-17T09:16:33Z</time>
      </trkpt>
      <trkpt lat="44.5329" lon="4.05125">
        <ele>590.56</ele>
        <time>2016-01-17T09:16:56Z</time>
      </trkpt>
      <trkpt lat="44.53303" lon="4.05141">
        <ele>583.83</ele>
        <time>2016-01-17T09:17:24Z</time>
      </trkpt>
      <trkpt lat="44.53317" lon="4.05157">
        <ele>583.32</ele>
        <time>2016-01-17T09:17:52Z</time>
      </trkpt>
      <trkpt lat="44.53336" lon="4.05152">
        <ele>582.45</ele>
        <time>2016-01-17T09:18:16Z</time>
      </trkpt>
      <trkpt lat="44.53354" lon="4.05156">
        <ele>580.38</ele>
        <time>2016-01-17T09:18:59Z</time>
      </trkpt>
      <trkpt lat="44.53373" lon="4.05156">
        <ele>574.71</ele>
        <time>2016-01-17T09:19:35Z</time>
      </trkpt>
      <trkpt lat="44.53391" lon="4.05154">
        <ele>574.8</ele>
        <time>2016-01-17T09:19:56Z</time>
      </trkpt>
      <trkpt lat="44.5341" lon="4.05155">
        <ele>570.69</ele>
        <time>2016-01-17T09:20:18Z</time>
      </trkpt>
      <trkpt lat="44.53428" lon="4.05153">
        <ele>568.69</ele>
        <time>2016-01-17T09:20:49Z</time>
      </trkpt>
      <trkpt lat="44.53447" lon="4.05151">
        <ele>567.72</ele>
        <time>2016-01-17T09:21:20Z</time>
      </trkpt>
      <trkpt lat="44.53462" lon="4.05137">
        <ele>568.81</ele>
        <time>2016-01-17T09:21:52Z</time>
      </trkpt>
      <trkpt lat="44.53474" lon="4.05117">
        <ele>566.5</ele>
        <time>2016-01-17T09:22:30Z</time>
      </trkpt>
      <trkpt lat="44.53489" lon="4.05103">
        <ele>564.87</ele>
        <time>2016-01-17T09:23:16Z</time>
      </trkpt>
      <trkpt lat="44.53508" lon="4.05101">
        <ele>561.6</ele>
        <time>2016-01-17T09:23:34Z</time>
      </trkpt>
      <trkpt lat="44.53526" lon="4.05097">
        <ele>560.66</ele>
        <time>2016-01-17T09:23:51Z</time>
      </trkpt>
      <trkpt lat="44.53542" lon="4.05085">
        <ele>564.69</ele>
        <time>2016-01-17T09:24:22Z</time>
      </trkpt>
      <trkpt lat="44.53559" lon="4.05074">
        <ele>564.47</ele>
        <time>2016-01-17T09:24:54Z</time>
      </trkpt>
      <trkpt lat="44.53578" lon="4.0507">
        <ele>559.72</ele>
        <time>2016-01-17T09:25:29Z</time>
      </trkpt>
      <trkpt lat="44.53596" lon="4.05065">
        <ele>556.47</ele>
        <time>2016-01-17T09:25:55Z</time>
      </trkpt>
      <trkpt lat="44.53616" lon="4.05061">
        <ele>550.16</ele>
        <time>2016-01-17T09:26:15Z</time>
      </trkpt>
      <trkpt lat="44.53634" lon="4.05063">
        <ele>548.77</ele>
        <time>2016-01-17T09:26:40Z</time>
      </trkpt>
      <trkpt lat="44.53654" lon="4.05061">
        <ele>550.36</ele>
        <time>2016-01-17T09:27:03Z</time>
      </trkpt>
      <trkpt lat="44.53672" lon="4.0506">
        <ele>549.16</ele>
        <time>2016-01-17T09:27:18Z</time>
      </trkpt>
      <trkpt lat="44.5369" lon="4.05059">
        <ele>551.66</ele>
        <time>2016-01-17T09:27:34Z</time>
      </trkpt>
      <trkpt lat="44.53708" lon="4.05052">
        <ele>553.48</ele>
        <time>2016-01-17T09:28:11Z</time>
      </trkpt>
      <trkpt lat="44.53726" lon="4.05055">
        <ele>550</ele>
        <time>2016-01-17T09:28:30Z</time>
      </trkpt>
      <trkpt lat="44.53743" lon="4.05043">
        <ele>543.83</ele>
        <time>2016-01-17T09:28:48Z</time>
      </trkpt>
      <trkpt lat="44.53759" lon="4.0503">
        <ele>541.7</ele>
        <time>2016-01-17T09:29:07Z</time>
      </trkpt>
      <trkpt lat="44.53762" lon="4.05004">
        <ele>545.55</ele>
        <time>2016-01-17T09:29:30Z</time>
      </trkpt>
      <trkpt lat="44.53769" lon="4.04981">
        <ele>544.11</ele>
        <time>2016-01-17T09:29:59Z</time>
      </trkpt>
      <trkpt lat="44.53783" lon="4.04964">
        <ele>547.32</ele>
        <time>2016-01-17T09:30:19Z</time>
      </trkpt>
      <trkpt lat="44.53793" lon="4.04942">
        <ele>550.28</ele>
        <time>2016-01-17T09:30:50Z</time>
      </trkpt>
      <trkpt lat="44.53808" lon="4.04955">
        <ele>544.36</ele>
        <time>2016-01-17T09:31:38Z</time>
      </trkpt>
      <trkpt lat="44.53829" lon="4.0495">
        <ele>546.6</ele>
        <time>2016-01-17T09:32:08Z</time>
      </trkpt>
      <trkpt lat="44.53847" lon="4.04948">
        <ele>546.06</ele>
        <time>2016-01-17T09:32:59Z</time>
      </trkpt>
      <trkpt lat="44.53848" lon="4.04922">
        <ele>552.81</ele>
        <time>2016-01-17T09:33:48Z</time>
      </trkpt>
      <trkpt lat="44.53861" lon="4.04904">
        <ele>560.65</ele>
        <time>2016-01-17T09:34:40Z</time>
      </trkpt>
      <trkpt lat="44.53856" lon="4.0488">
        <ele>559.56</ele>
        <time>2016-01-17T09:35:07Z</time>
      </trkpt>
      <trkpt lat="44.53866" lon="4.04901">
        <ele>555.52</ele>
        <time>2016-01-17T09:36:04Z</time>
      </trkpt>
      <trkpt lat="44.53884" lon="4.04894">
        <ele>560.34</ele>
        <time>2016-01-17T09:36:58Z</time>
      </trkpt>
      <trkpt lat="44.53902" lon="4.04886">
        <ele>562.58</ele>
        <time>2016-01-17T09:37:43Z</time>
      </trkpt>
      <trkpt lat="44.53919" lon="4.04878">
        <ele>565.72</ele>
        <time>2016-01-17T09:38:30Z</time>
      </trkpt>
      <trkpt lat="44.53935" lon="4.04866">
        <ele>570.05</ele>
        <time>2016-01-17T09:38:58Z</time>
      </trkpt>
      <trkpt lat="44.53951" lon="4.04854">
        <ele>570.45</ele>
        <time>2016-01-17T09:39:14Z</time>
      </trkpt>
      <trkpt lat="44.53964" lon="4.04835">
        <ele>573.48</ele>
        <time>2016-01-17T09:39:33Z</time>
      </trkpt>
      <trkpt lat="44.53972" lon="4.04811">
        <ele>570.16</ele>
        <time>2016-01-17T09:39:55Z</time>
      </trkpt>
      <trkpt lat="44.53977" lon="4.04786">
        <ele>570.66</ele>
        <time>2016-01-17T09:40:18Z</time>
      </trkpt>
      <trkpt lat="44.53988" lon="4.04764">
        <ele>571.42</ele>
        <time>2016-01-17T09:40:41Z</time>
      </trkpt>
      <trkpt lat="44.54005" lon="4.04754">
        <ele>578.73</ele>
        <time>2016-01-17T09:41:07Z</time>
      </trkpt>
      <trkpt lat="44.54023" lon="4.04749">
        <ele>579.06</ele>
        <time>2016-01-17T09:41:38Z</time>
      </trkpt>
      <trkpt lat="44.54031" lon="4.04772">
        <ele>570.02</ele>
        <time>2016-01-17T09:42:01Z</time>
      </trkpt>
      <trkpt lat="44.54036" lon="4.04797">
        <ele>566.7</ele>
        <time>2016-01-17T09:42:26Z</time>
      </trkpt>
      <trkpt lat="44.54045" lon="4.0482">
        <ele>572.81</ele>
        <time>2016-01-17T09:42:42Z</time>
      </trkpt>
      <trkpt lat="44.54061" lon="4.04833">
        <ele>571.74</ele>
        <time>2016-01-17T09:44:44Z</time>
      </trkpt>
      <trkpt lat="44.54076" lon="4.04849">
        <ele>576.15</ele>
        <time>2016-01-17T09:45:08Z</time>
      </trkpt>
      <trkpt lat="44.54092" lon="4.04861">
        <ele>576.16</ele>
        <time>2016-01-17T09:45:33Z</time>
      </trkpt>
      <trkpt lat="44.54108" lon="4.04875">
        <ele>574.36</ele>
        <time>2016-01-17T09:45:57Z</time>
      </trkpt>
      <trkpt lat="44.54126" lon="4.04872">
        <ele>575.81</ele>
        <time>2016-01-17T09:46:15Z</time>
      </trkpt>
      <trkpt lat="44.54142" lon="4.04856">
        <ele>583.34</ele>
        <time>2016-01-17T09:46:34Z</time>
      </trkpt>
      <trkpt lat="44.54158" lon="4.04846">
        <ele>584.31</ele>
        <time>2016-01-17T09:47:00Z</time>
      </trkpt>
      <trkpt lat="44.54176" lon="4.0484">
        <ele>587.58</ele>
        <time>2016-01-17T09:47:24Z</time>
      </trkpt>
      <trkpt lat="44.54193" lon="4.04833">
        <ele>592.4</ele>
        <time>2016-01-17T09:47:44Z</time>
      </trkpt>
      <trkpt lat="44.5421" lon="4.04822">
        <ele>595.91</ele>
        <time>2016-01-17T09:48:07Z</time>
      </trkpt>
      <trkpt lat="44.54227" lon="4.04811">
        <ele>594.81</ele>
        <time>2016-01-17T09:48:24Z</time>
      </trkpt>
      <trkpt lat="44.54244" lon="4.04803">
        <ele>594.65</ele>
        <time>2016-01-17T09:49:31Z</time>
      </trkpt>
      <trkpt lat="44.54258" lon="4.04785">
        <ele>594.35</ele>
        <time>2016-01-17T09:49:53Z</time>
      </trkpt>
      <trkpt lat="44.54268" lon="4.04765">
        <ele>596.68</ele>
        <time>2016-01-17T09:55:12Z</time>
      </trkpt>
      <trkpt lat="44.54279" lon="4.04744">
        <ele>594.63</ele>
        <time>2016-01-17T09:55:43Z</time>
      </trkpt>
      <trkpt lat="44.54292" lon="4.04724">
        <ele>595.51</ele>
        <time>2016-01-17T09:56:01Z</time>
      </trkpt>
      <trkpt lat="44.54305" lon="4.04705">
        <ele>594.9</ele>
        <time>2016-01-17T09:56:22Z</time>
      </trkpt>
      <trkpt lat="44.54317" lon="4.04685">
        <ele>600.55</ele>
        <time>2016-01-17T09:56:42Z</time>
      </trkpt>
      <trkpt lat="44.54327" lon="4.04663">
        <ele>602.56</ele>
        <time>2016-01-17T09:57:13Z</time>
      </trkpt>
      <trkpt lat="44.5434" lon="4.04644">
        <ele>604.39</ele>
        <time>2016-01-17T09:57:44Z</time>
      </trkpt>
      <trkpt lat="44.54355" lon="4.04628">
        <ele>604.96</ele>
        <time>2016-01-17T09:58:08Z</time>
      </trkpt>
      <trkpt lat="44.54369" lon="4.04611">
        <ele>605.82</ele>
        <time>2016-01-17T09:58:32Z</time>
      </trkpt>
      <trkpt lat="44.54385" lon="4.04601">
        <ele>610.91</ele>
        <time>2016-01-17T09:58:49Z</time>
      </trkpt>
      <trkpt lat="44.54398" lon="4.04583">
        <ele>610.16</ele>
        <time>2016-01-17T09:59:10Z</time>
      </trkpt>
      <trkpt lat="44.54414" lon="4.04569">
        <ele>613.97</ele>
        <time>2016-01-17T09:59:31Z</time>
      </trkpt>
      <trkpt lat="44.54423" lon="4.04548">
        <ele>611.81</ele>
        <time>2016-01-17T09:59:53Z</time>
      </trkpt>
      <trkpt lat="44.54435" lon="4.04528">
        <ele>615.2</ele>
        <time>2016-01-17T10:00:11Z</time>
      </trkpt>
      <trkpt lat="44.54448" lon="4.04509">
        <ele>607.86</ele>
        <time>2016-01-17T10:00:36Z</time>
      </trkpt>
      <trkpt lat="44.54458" lon="4.04488">
        <ele>617.98</ele>
        <time>2016-01-17T10:00:55Z</time>
      </trkpt>
      <trkpt lat="44.54472" lon="4.04471">
        <ele>613.21</ele>
        <time>2016-01-17T10:01:18Z</time>
      </trkpt>
      <trkpt lat="44.54487" lon="4.04456">
        <ele>611.75</ele>
        <time>2016-01-17T10:01:43Z</time>
      </trkpt>
      <trkpt lat="44.54502" lon="4.0444">
        <ele>617.84</ele>
        <time>2016-01-17T10:01:59Z</time>
      </trkpt>
      <trkpt lat="44.54517" lon="4.04425">
        <ele>622.68</ele>
        <time>2016-01-17T10:02:17Z</time>
      </trkpt>
      <trkpt lat="44.5453" lon="4.04407">
        <ele>615.69</ele>
        <time>2016-01-17T10:03:52Z</time>
      </trkpt>
      <trkpt lat="44.54541" lon="4.04386">
        <ele>614.63</ele>
        <time>2016-01-17T10:04:47Z</time>
      </trkpt>
      <trkpt lat="44.54552" lon="4.04365">
        <ele>615.87</ele>
        <time>2016-01-17T10:05:04Z</time>
      </trkpt>
      <trkpt lat="44.54565" lon="4.04347">
        <ele>619.67</ele>
        <time>2016-01-17T10:05:20Z</time>
      </trkpt>
      <trkpt lat="44.54576" lon="4.04325">
        <ele>613.94</ele>
        <time>2016-01-17T10:05:45Z</time>
      </trkpt>
      <trkpt lat="44.5458" lon="4.04301">
        <ele>618.76</ele>
        <time>2016-01-17T10:06:02Z</time>
      </trkpt>
      <trkpt lat="44.54577" lon="4.04276">
        <ele>617.28</ele>
        <time>2016-01-17T10:07:02Z</time>
      </trkpt>
      <trkpt lat="44.54592" lon="4.0426">
        <ele>620.1</ele>
        <time>2016-01-17T10:07:42Z</time>
      </trkpt>
      <trkpt lat="44.54596" lon="4.04236">
        <ele>621.31</ele>
        <time>2016-01-17T10:08:32Z</time>
      </trkpt>
      <trkpt lat="44.54613" lon="4.04229">
        <ele>616.45</ele>
        <time>2016-01-17T10:09:45Z</time>
      </trkpt>
      <trkpt lat="44.54631" lon="4.04228">
        <ele>624.51</ele>
        <time>2016-01-17T10:11:13Z</time>
      </trkpt>
      <trkpt lat="44.54639" lon="4.04205">
        <ele>624.45</ele>
        <time>2016-01-17T10:11:52Z</time>
      </trkpt>
      <trkpt lat="44.54636" lon="4.04179">
        <ele>627.57</ele>
        <time>2016-01-17T10:13:17Z</time>
      </trkpt>
      <trkpt lat="44.54649" lon="4.0416">
        <ele>628.85</ele>
        <time>2016-01-17T10:14:30Z</time>
      </trkpt>
      <trkpt lat="44.54665" lon="4.04146">
        <ele>638.41</ele>
        <time>2016-01-17T10:14:49Z</time>
      </trkpt>
      <trkpt lat="44.54681" lon="4.04135">
        <ele>639.36</ele>
        <time>2016-01-17T10:15:17Z</time>
      </trkpt>
      <trkpt lat="44.54696" lon="4.0412">
        <ele>641.22</ele>
        <time>2016-01-17T10:15:40Z</time>
      </trkpt>
      <trkpt lat="44.5471" lon="4.04104">
        <ele>630.16</ele>
        <time>2016-01-17T10:16:05Z</time>
      </trkpt>
      <trkpt lat="44.54726" lon="4.04091">
        <ele>625.01</ele>
        <time>2016-01-17T10:16:36Z</time>
      </trkpt>
      <trkpt lat="44.54736" lon="4.04069">
        <ele>633.46</ele>
        <time>2016-01-17T10:17:02Z</time>
      </trkpt>
      <trkpt lat="44.54753" lon="4.04058">
        <ele>636.28</ele>
        <time>2016-01-17T10:17:21Z</time>
      </trkpt>
      <trkpt lat="44.54769" lon="4.04046">
        <ele>637.44</ele>
        <time>2016-01-17T10:17:49Z</time>
      </trkpt>
      <trkpt lat="44.54778" lon="4.04022">
        <ele>638.62</ele>
        <time>2016-01-17T10:18:42Z</time>
      </trkpt>
      <trkpt lat="44.54794" lon="4.04012">
        <ele>640.83</ele>
        <time>2016-01-17T10:19:04Z</time>
      </trkpt>
      <trkpt lat="44.54817" lon="4.04003">
        <ele>654.69</ele>
        <time>2016-01-17T10:21:04Z</time>
      </trkpt>
      <trkpt lat="44.54825" lon="4.04162">
        <ele>648.69</ele>
        <time>2016-01-17T10:24:04Z</time>
      </trkpt>
      <trkpt lat="44.54817" lon="4.04185">
        <ele>646.94</ele>
        <time>2016-01-17T10:24:39Z</time>
      </trkpt>
      <trkpt lat="44.54809" lon="4.04209">
        <ele>649.58</ele>
        <time>2016-01-17T10:24:59Z</time>
      </trkpt>
      <trkpt lat="44.54805" lon="4.04234">
        <ele>649.2</ele>
        <time>2016-01-17T10:25:20Z</time>
      </trkpt>
      <trkpt lat="44.54793" lon="4.04256">
        <ele>649.61</ele>
        <time>2016-01-17T10:25:51Z</time>
      </trkpt>
      <trkpt lat="44.54771" lon="4.04389">
        <ele>617.69</ele>
        <time>2016-01-17T10:29:50Z</time>
      </trkpt>
      <trkpt lat="44.54788" lon="4.04399">
        <ele>627.19</ele>
        <time>2016-01-17T10:30:40Z</time>
      </trkpt>
      <trkpt lat="44.54798" lon="4.04421">
        <ele>627.72</ele>
        <time>2016-01-17T10:30:56Z</time>
      </trkpt>
      <trkpt lat="44.54812" lon="4.04437">
        <ele>628.32</ele>
        <time>2016-01-17T10:31:20Z</time>
      </trkpt>
      <trkpt lat="44.54826" lon="4.04454">
        <ele>631.03</ele>
        <time>2016-01-17T10:32:26Z</time>
      </trkpt>
      <trkpt lat="44.54841" lon="4.04468">
        <ele>626.76</ele>
        <time>2016-01-17T10:33:32Z</time>
      </trkpt>
      <trkpt lat="44.54858" lon="4.0448">
        <ele>627.68</ele>
        <time>2016-01-17T10:33:49Z</time>
      </trkpt>
      <trkpt lat="44.5487" lon="4.04499">
        <ele>622.26</ele>
        <time>2016-01-17T10:34:05Z</time>
      </trkpt>
      <trkpt lat="44.54872" lon="4.04524">
        <ele>622.39</ele>
        <time>2016-01-17T10:34:21Z</time>
      </trkpt>
      <trkpt lat="44.54877" lon="4.0455">
        <ele>617.94</ele>
        <time>2016-01-17T10:34:49Z</time>
      </trkpt>
      <trkpt lat="44.54886" lon="4.04573">
        <ele>623.66</ele>
        <time>2016-01-17T10:35:05Z</time>
      </trkpt>
      <trkpt lat="44.54898" lon="4.04594">
        <ele>615.63</ele>
        <time>2016-01-17T10:35:19Z</time>
      </trkpt>
      <trkpt lat="44.54906" lon="4.04617">
        <ele>614.84</ele>
        <time>2016-01-17T10:35:35Z</time>
      </trkpt>
      <trkpt lat="44.54922" lon="4.04628">
        <ele>618.78</ele>
        <time>2016-01-17T10:35:49Z</time>
      </trkpt>
      <trkpt lat="44.54941" lon="4.04632">
        <ele>620.13</ele>
        <time>2016-01-17T10:36:06Z</time>
      </trkpt>
      <trkpt lat="44.54959" lon="4.04639">
        <ele>619.5</ele>
        <time>2016-01-17T10:36:24Z</time>
      </trkpt>
      <trkpt lat="44.54978" lon="4.04647">
        <ele>617.94</ele>
        <time>2016-01-17T10:36:43Z</time>
      </trkpt>
      <trkpt lat="44.54997" lon="4.04653">
        <ele>614.42</ele>
        <time>2016-01-17T10:36:58Z</time>
      </trkpt>
      <trkpt lat="44.55014" lon="4.0466">
        <ele>610.82</ele>
        <time>2016-01-17T10:37:14Z</time>
      </trkpt>
      <trkpt lat="44.55033" lon="4.04662">
        <ele>612.62</ele>
        <time>2016-01-17T10:37:24Z</time>
      </trkpt>
      <trkpt lat="44.55051" lon="4.0466">
        <ele>613.69</ele>
        <time>2016-01-17T10:37:41Z</time>
      </trkpt>
      <trkpt lat="44.55069" lon="4.04657">
        <ele>611.32</ele>
        <time>2016-01-17T10:37:56Z</time>
      </trkpt>
      <trkpt lat="44.55088" lon="4.0465">
        <ele>607.7</ele>
        <time>2016-01-17T10:38:12Z</time>
      </trkpt>
      <trkpt lat="44.55106" lon="4.04643">
        <ele>610.42</ele>
        <time>2016-01-17T10:38:26Z</time>
      </trkpt>
      <trkpt lat="44.55123" lon="4.04654">
        <ele>604.86</ele>
        <time>2016-01-17T10:38:48Z</time>
      </trkpt>
      <trkpt lat="44.55128" lon="4.04679">
        <ele>601.71</ele>
        <time>2016-01-17T10:39:04Z</time>
      </trkpt>
      <trkpt lat="44.5513" lon="4.04704">
        <ele>599.72</ele>
        <time>2016-01-17T10:39:23Z</time>
      </trkpt>
      <trkpt lat="44.55131" lon="4.0473">
        <ele>601.59</ele>
        <time>2016-01-17T10:39:39Z</time>
      </trkpt>
      <trkpt lat="44.55139" lon="4.04753">
        <ele>600.74</ele>
        <time>2016-01-17T10:40:11Z</time>
      </trkpt>
      <trkpt lat="44.55156" lon="4.04766">
        <ele>600.21</ele>
        <time>2016-01-17T10:40:29Z</time>
      </trkpt>
      <trkpt lat="44.55159" lon="4.04791">
        <ele>604.55</ele>
        <time>2016-01-17T10:41:13Z</time>
      </trkpt>
      <trkpt lat="44.55148" lon="4.04811">
        <ele>603.61</ele>
        <time>2016-01-17T10:41:29Z</time>
      </trkpt>
      <trkpt lat="44.55138" lon="4.04833">
        <ele>601.6</ele>
        <time>2016-01-17T10:41:45Z</time>
      </trkpt>
      <trkpt lat="44.55127" lon="4.04853">
        <ele>602.49</ele>
        <time>2016-01-17T10:42:00Z</time>
      </trkpt>
      <trkpt lat="44.55115" lon="4.04873">
        <ele>597.14</ele>
        <time>2016-01-17T10:42:21Z</time>
      </trkpt>
      <trkpt lat="44.55098" lon="4.04882">
        <ele>593.71</ele>
        <time>2016-01-17T10:42:37Z</time>
      </trkpt>
      <trkpt lat="44.5508" lon="4.04889">
        <ele>594.25</ele>
        <time>2016-01-17T10:42:55Z</time>
      </trkpt>
      <trkpt lat="44.55062" lon="4.04892">
        <ele>597.56</ele>
        <time>2016-01-17T10:43:10Z</time>
      </trkpt>
      <trkpt lat="44.55044" lon="4.04897">
        <ele>599.38</ele>
        <time>2016-01-17T10:43:24Z</time>
      </trkpt>
      <trkpt lat="44.55033" lon="4.04917">
        <ele>603.65</ele>
        <time>2016-01-17T10:43:39Z</time>
      </trkpt>
      <trkpt lat="44.55036" lon="4.04943">
        <ele>600.64</ele>
        <time>2016-01-17T10:44:01Z</time>
      </trkpt>
      <trkpt lat="44.55052" lon="4.04955">
        <ele>600.18</ele>
        <time>2016-01-17T10:44:20Z</time>
      </trkpt>
      <trkpt lat="44.55071" lon="4.04962">
        <ele>599.84</ele>
        <time>2016-01-17T10:44:35Z</time>
      </trkpt>
      <trkpt lat="44.55089" lon="4.04967">
        <ele>597.81</ele>
        <time>2016-01-17T10:44:49Z</time>
      </trkpt>
      <trkpt lat="44.55107" lon="4.04973">
        <ele>601.94</ele>
        <time>2016-01-17T10:45:11Z</time>
      </trkpt>
      <trkpt lat="44.55116" lon="4.04995">
        <ele>599.8</ele>
        <time>2016-01-17T10:45:49Z</time>
      </trkpt>
      <trkpt lat="44.55124" lon="4.05018">
        <ele>602.66</ele>
        <time>2016-01-17T10:46:05Z</time>
      </trkpt>
      <trkpt lat="44.55133" lon="4.0504">
        <ele>608.19</ele>
        <time>2016-01-17T10:46:30Z</time>
      </trkpt>
      <trkpt lat="44.55139" lon="4.05065">
        <ele>600.88</ele>
        <time>2016-01-17T10:46:46Z</time>
      </trkpt>
      <trkpt lat="44.55147" lon="4.0509">
        <ele>602.44</ele>
        <time>2016-01-17T10:47:01Z</time>
      </trkpt>
      <trkpt lat="44.55152" lon="4.05114">
        <ele>599.96</ele>
        <time>2016-01-17T10:47:22Z</time>
      </trkpt>
      <trkpt lat="44.55142" lon="4.05136">
        <ele>596.58</ele>
        <time>2016-01-17T10:47:38Z</time>
      </trkpt>
      <trkpt lat="44.55129" lon="4.05155">
        <ele>594.71</ele>
        <time>2016-01-17T10:48:07Z</time>
      </trkpt>
      <trkpt lat="44.55112" lon="4.05145">
        <ele>600.65</ele>
        <time>2016-01-17T10:48:43Z</time>
      </trkpt>
      <trkpt lat="44.55095" lon="4.05135">
        <ele>598.56</ele>
        <time>2016-01-17T10:48:57Z</time>
      </trkpt>
      <trkpt lat="44.55078" lon="4.05127">
        <ele>598.83</ele>
        <time>2016-01-17T10:49:09Z</time>
      </trkpt>
      <trkpt lat="44.55061" lon="4.05116">
        <ele>598.23</ele>
        <time>2016-01-17T10:49:27Z</time>
      </trkpt>
      <trkpt lat="44.55048" lon="4.05098">
        <ele>602.49</ele>
        <time>2016-01-17T10:49:41Z</time>
      </trkpt>
      <trkpt lat="44.55031" lon="4.0509">
        <ele>596.82</ele>
        <time>2016-01-17T10:49:57Z</time>
      </trkpt>
      <trkpt lat="44.55013" lon="4.05085">
        <ele>598</ele>
        <time>2016-01-17T10:50:11Z</time>
      </trkpt>
      <trkpt lat="44.54996" lon="4.05075">
        <ele>591.35</ele>
        <time>2016-01-17T10:50:34Z</time>
      </trkpt>
      <trkpt lat="44.5498" lon="4.05061">
        <ele>594.35</ele>
        <time>2016-01-17T10:50:48Z</time>
      </trkpt>
      <trkpt lat="44.54968" lon="4.05042">
        <ele>590.54</ele>
        <time>2016-01-17T10:51:05Z</time>
      </trkpt>
      <trkpt lat="44.54956" lon="4.05022">
        <ele>596.44</ele>
        <time>2016-01-17T10:51:20Z</time>
      </trkpt>
      <trkpt lat="44.54941" lon="4.05007">
        <ele>596.31</ele>
        <time>2016-01-17T10:51:51Z</time>
      </trkpt>
      <trkpt lat="44.54922" lon="4.05007">
        <ele>596.08</ele>
        <time>2016-01-17T10:52:06Z</time>
      </trkpt>
      <trkpt lat="44.54903" lon="4.05007">
        <ele>596.3</ele>
        <time>2016-01-17T10:52:24Z</time>
      </trkpt>
      <trkpt lat="44.54885" lon="4.05015">
        <ele>597.03</ele>
        <time>2016-01-17T10:52:36Z</time>
      </trkpt>
      <trkpt lat="44.54866" lon="4.05019">
        <ele>597.15</ele>
        <time>2016-01-17T10:52:48Z</time>
      </trkpt>
      <trkpt lat="44.54848" lon="4.0502">
        <ele>594.78</ele>
        <time>2016-01-17T10:53:05Z</time>
      </trkpt>
      <trkpt lat="44.54831" lon="4.05028">
        <ele>592.63</ele>
        <time>2016-01-17T10:53:22Z</time>
      </trkpt>
      <trkpt lat="44.54815" lon="4.05043">
        <ele>592.83</ele>
        <time>2016-01-17T10:53:38Z</time>
      </trkpt>
      <trkpt lat="44.54803" lon="4.05063">
        <ele>587.97</ele>
        <time>2016-01-17T10:53:54Z</time>
      </trkpt>
      <trkpt lat="44.54788" lon="4.05079">
        <ele>582.51</ele>
        <time>2016-01-17T10:54:14Z</time>
      </trkpt>
      <trkpt lat="44.54772" lon="4.05094">
        <ele>578.68</ele>
        <time>2016-01-17T10:54:31Z</time>
      </trkpt>
      <trkpt lat="44.54758" lon="4.05109">
        <ele>583.81</ele>
        <time>2016-01-17T10:54:42Z</time>
      </trkpt>
      <trkpt lat="44.54743" lon="4.05126">
        <ele>585.23</ele>
        <time>2016-01-17T10:54:57Z</time>
      </trkpt>
      <trkpt lat="44.54731" lon="4.05146">
        <ele>579.63</ele>
        <time>2016-01-17T10:55:21Z</time>
      </trkpt>
      <trkpt lat="44.54723" lon="4.05168">
        <ele>582.15</ele>
        <time>2016-01-17T10:55:45Z</time>
      </trkpt>
      <trkpt lat="44.54708" lon="4.05182">
        <ele>583.15</ele>
        <time>2016-01-17T10:56:00Z</time>
      </trkpt>
      <trkpt lat="44.54691" lon="4.05171">
        <ele>582.94</ele>
        <time>2016-01-17T10:56:17Z</time>
      </trkpt>
      <trkpt lat="44.54673" lon="4.0517">
        <ele>584.49</ele>
        <time>2016-01-17T10:56:51Z</time>
      </trkpt>
      <trkpt lat="44.54655" lon="4.0518">
        <ele>588.62</ele>
        <time>2016-01-17T10:57:12Z</time>
      </trkpt>
      <trkpt lat="44.5464" lon="4.05195">
        <ele>589.29</ele>
        <time>2016-01-17T10:57:34Z</time>
      </trkpt>
      <trkpt lat="44.54624" lon="4.05207">
        <ele>593.8</ele>
        <time>2016-01-17T10:57:52Z</time>
      </trkpt>
      <trkpt lat="44.54606" lon="4.05213">
        <ele>595.26</ele>
        <time>2016-01-17T10:58:09Z</time>
      </trkpt>
      <trkpt lat="44.54589" lon="4.05222">
        <ele>596.38</ele>
        <time>2016-01-17T10:58:27Z</time>
      </trkpt>
      <trkpt lat="44.54576" lon="4.05241">
        <ele>597.25</ele>
        <time>2016-01-17T10:58:51Z</time>
      </trkpt>
      <trkpt lat="44.54565" lon="4.05263">
        <ele>597.91</ele>
        <time>2016-01-17T10:59:09Z</time>
      </trkpt>
      <trkpt lat="44.54555" lon="4.05284">
        <ele>597.88</ele>
        <time>2016-01-17T10:59:30Z</time>
      </trkpt>
      <trkpt lat="44.54544" lon="4.05306">
        <ele>596.43</ele>
        <time>2016-01-17T10:59:50Z</time>
      </trkpt>
      <trkpt lat="44.54532" lon="4.05325">
        <ele>600.48</ele>
        <time>2016-01-17T11:00:07Z</time>
      </trkpt>
      <trkpt lat="44.54518" lon="4.05342">
        <ele>605.78</ele>
        <time>2016-01-17T11:00:24Z</time>
      </trkpt>
      <trkpt lat="44.54505" lon="4.05359">
        <ele>603.94</ele>
        <time>2016-01-17T11:01:13Z</time>
      </trkpt>
      <trkpt lat="44.54488" lon="4.05373">
        <ele>605.96</ele>
        <time>2016-01-17T11:01:38Z</time>
      </trkpt>
      <trkpt lat="44.54472" lon="4.05385">
        <ele>606.08</ele>
        <time>2016-01-17T11:01:59Z</time>
      </trkpt>
      <trkpt lat="44.54455" lon="4.05394">
        <ele>607.93</ele>
        <time>2016-01-17T11:02:20Z</time>
      </trkpt>
      <trkpt lat="44.54439" lon="4.05404">
        <ele>606.75</ele>
        <time>2016-01-17T11:02:41Z</time>
      </trkpt>
      <trkpt lat="44.54428" lon="4.05426">
        <ele>602.74</ele>
        <time>2016-01-17T11:03:12Z</time>
      </trkpt>
      <trkpt lat="44.54413" lon="4.0544">
        <ele>604.83</ele>
        <time>2016-01-17T11:03:50Z</time>
      </trkpt>
      <trkpt lat="44.54401" lon="4.05459">
        <ele>601.97</ele>
        <time>2016-01-17T11:42:22Z</time>
      </trkpt>
      <trkpt lat="44.54388" lon="4.05478">
        <ele>600.38</ele>
        <time>2016-01-17T11:42:43Z</time>
      </trkpt>
      <trkpt lat="44.5437" lon="4.05482">
        <ele>599.06</ele>
        <time>2016-01-17T11:43:18Z</time>
      </trkpt>
      <trkpt lat="44.54356" lon="4.05497">
        <ele>595.17</ele>
        <time>2016-01-17T11:43:35Z</time>
      </trkpt>
      <trkpt lat="44.54341" lon="4.05513">
        <ele>594.49</ele>
        <time>2016-01-17T11:43:57Z</time>
      </trkpt>
      <trkpt lat="44.54327" lon="4.05528">
        <ele>598.91</ele>
        <time>2016-01-17T11:44:15Z</time>
      </trkpt>
      <trkpt lat="44.54315" lon="4.05548">
        <ele>593.79</ele>
        <time>2016-01-17T11:44:39Z</time>
      </trkpt>
      <trkpt lat="44.54301" lon="4.05564">
        <ele>592.68</ele>
        <time>2016-01-17T11:45:01Z</time>
      </trkpt>
      <trkpt lat="44.54287" lon="4.0558">
        <ele>592.1</ele>
        <time>2016-01-17T11:45:24Z</time>
      </trkpt>
      <trkpt lat="44.54269" lon="4.05589">
        <ele>601.9</ele>
        <time>2016-01-17T11:45:57Z</time>
      </trkpt>
      <trkpt lat="44.54252" lon="4.05598">
        <ele>607.46</ele>
        <time>2016-01-17T11:46:15Z</time>
      </trkpt>
      <trkpt lat="44.54239" lon="4.05617">
        <ele>600.54</ele>
        <time>2016-01-17T11:48:03Z</time>
      </trkpt>
      <trkpt lat="44.54227" lon="4.05638">
        <ele>602.43</ele>
        <time>2016-01-17T11:48:21Z</time>
      </trkpt>
      <trkpt lat="44.54213" lon="4.05654">
        <ele>597.73</ele>
        <time>2016-01-17T11:48:42Z</time>
      </trkpt>
      <trkpt lat="44.54197" lon="4.05666">
        <ele>598.58</ele>
        <time>2016-01-17T11:49:01Z</time>
      </trkpt>
      <trkpt lat="44.54177" lon="4.05671">
        <ele>605.12</ele>
        <time>2016-01-17T11:49:15Z</time>
      </trkpt>
      <trkpt lat="44.54162" lon="4.05686">
        <ele>608.26</ele>
        <time>2016-01-17T11:49:33Z</time>
      </trkpt>
      <trkpt lat="44.54145" lon="4.05697">
        <ele>606.82</ele>
        <time>2016-01-17T11:49:55Z</time>
      </trkpt>
      <trkpt lat="44.54127" lon="4.05699">
        <ele>606.66</ele>
        <time>2016-01-17T11:50:14Z</time>
      </trkpt>
      <trkpt lat="44.54109" lon="4.05706">
        <ele>607.66</ele>
        <time>2016-01-17T11:50:33Z</time>
      </trkpt>
      <trkpt lat="44.54093" lon="4.05719">
        <ele>609.03</ele>
        <time>2016-01-17T11:50:50Z</time>
      </trkpt>
      <trkpt lat="44.54078" lon="4.05735">
        <ele>605.51</ele>
        <time>2016-01-17T11:51:13Z</time>
      </trkpt>
      <trkpt lat="44.54064" lon="4.05751">
        <ele>607.57</ele>
        <time>2016-01-17T11:51:31Z</time>
      </trkpt>
      <trkpt lat="44.54052" lon="4.0577">
        <ele>608.7</ele>
        <time>2016-01-17T11:51:56Z</time>
      </trkpt>
      <trkpt lat="44.5404" lon="4.0579">
        <ele>607.1</ele>
        <time>2016-01-17T11:52:16Z</time>
      </trkpt>
      <trkpt lat="44.54025" lon="4.05806">
        <ele>609.61</ele>
        <time>2016-01-17T11:52:36Z</time>
      </trkpt>
      <trkpt lat="44.54007" lon="4.05808">
        <ele>607.26</ele>
        <time>2016-01-17T11:53:00Z</time>
      </trkpt>
      <trkpt lat="44.53989" lon="4.05798">
        <ele>610.55</ele>
        <time>2016-01-17T11:53:16Z</time>
      </trkpt>
      <trkpt lat="44.53971" lon="4.05795">
        <ele>606.7</ele>
        <time>2016-01-17T11:53:35Z</time>
      </trkpt>
      <trkpt lat="44.53952" lon="4.05794">
        <ele>606.17</ele>
        <time>2016-01-17T11:55:35Z</time>
      </trkpt>
      <trkpt lat="44.53935" lon="4.05802">
        <ele>604.92</ele>
        <time>2016-01-17T11:55:52Z</time>
      </trkpt>
      <trkpt lat="44.53919" lon="4.05815">
        <ele>605.49</ele>
        <time>2016-01-17T11:56:10Z</time>
      </trkpt>
      <trkpt lat="44.53902" lon="4.05825">
        <ele>608.66</ele>
        <time>2016-01-17T11:56:29Z</time>
      </trkpt>
      <trkpt lat="44.53887" lon="4.05841">
        <ele>607.65</ele>
        <time>2016-01-17T11:56:46Z</time>
      </trkpt>
      <trkpt lat="44.53871" lon="4.05854">
        <ele>606.31</ele>
        <time>2016-01-17T11:57:09Z</time>
      </trkpt>
      <trkpt lat="44.53856" lon="4.05867">
        <ele>606.73</ele>
        <time>2016-01-17T11:57:36Z</time>
      </trkpt>
      <trkpt lat="44.53839" lon="4.05877">
        <ele>605.7</ele>
        <time>2016-01-17T11:57:51Z</time>
      </trkpt>
      <trkpt lat="44.53821" lon="4.05886">
        <ele>602.69</ele>
        <time>2016-01-17T11:58:15Z</time>
      </trkpt>
      <trkpt lat="44.53807" lon="4.05902">
        <ele>604.62</ele>
        <time>2016-01-17T11:58:32Z</time>
      </trkpt>
      <trkpt lat="44.53789" lon="4.05911">
        <ele>598.85</ele>
        <time>2016-01-17T11:58:55Z</time>
      </trkpt>
      <trkpt lat="44.53772" lon="4.05919">
        <ele>591.59</ele>
        <time>2016-01-17T11:59:40Z</time>
      </trkpt>
      <trkpt lat="44.53754" lon="4.05921">
        <ele>595.73</ele>
        <time>2016-01-17T12:00:00Z</time>
      </trkpt>
      <trkpt lat="44.53736" lon="4.05924">
        <ele>598.31</ele>
        <time>2016-01-17T12:00:14Z</time>
      </trkpt>
      <trkpt lat="44.53719" lon="4.05935">
        <ele>599.78</ele>
        <time>2016-01-17T12:00:29Z</time>
      </trkpt>
      <trkpt lat="44.53703" lon="4.05948">
        <ele>600.92</ele>
        <time>2016-01-17T12:00:43Z</time>
      </trkpt>
      <trkpt lat="44.53687" lon="4.05958">
        <ele>597.74</ele>
        <time>2016-01-17T12:00:59Z</time>
      </trkpt>
      <trkpt lat="44.53669" lon="4.05968">
        <ele>591.74</ele>
        <time>2016-01-17T12:01:43Z</time>
      </trkpt>
      <trkpt lat="44.53652" lon="4.0598">
        <ele>592.06</ele>
        <time>2016-01-17T12:01:56Z</time>
      </trkpt>
      <trkpt lat="44.53639" lon="4.05997">
        <ele>586.55</ele>
        <time>2016-01-17T12:02:17Z</time>
      </trkpt>
      <trkpt lat="44.5363" lon="4.06019">
        <ele>586.24</ele>
        <time>2016-01-17T12:02:47Z</time>
      </trkpt>
      <trkpt lat="44.5363" lon="4.06045">
        <ele>583.75</ele>
        <time>2016-01-17T12:03:14Z</time>
      </trkpt>
      <trkpt lat="44.53638" lon="4.06069">
        <ele>575.75</ele>
        <time>2016-01-17T12:03:31Z</time>
      </trkpt>
      <trkpt lat="44.53639" lon="4.06095">
        <ele>586.82</ele>
        <time>2016-01-17T12:05:16Z</time>
      </trkpt>
      <trkpt lat="44.53643" lon="4.0612">
        <ele>588.87</ele>
        <time>2016-01-17T12:05:42Z</time>
      </trkpt>
      <trkpt lat="44.53654" lon="4.06142">
        <ele>587.37</ele>
        <time>2016-01-17T12:06:03Z</time>
      </trkpt>
      <trkpt lat="44.5367" lon="4.06156">
        <ele>585.56</ele>
        <time>2016-01-17T12:06:19Z</time>
      </trkpt>
      <trkpt lat="44.53682" lon="4.06175">
        <ele>580.01</ele>
        <time>2016-01-17T12:06:45Z</time>
      </trkpt>
      <trkpt lat="44.53687" lon="4.06201">
        <ele>583.51</ele>
        <time>2016-01-17T12:07:00Z</time>
      </trkpt>
      <trkpt lat="44.53697" lon="4.06225">
        <ele>583.75</ele>
        <time>2016-01-17T12:07:15Z</time>
      </trkpt>
      <trkpt lat="44.53709" lon="4.06244">
        <ele>583.69</ele>
        <time>2016-01-17T12:07:34Z</time>
      </trkpt>
      <trkpt lat="44.53721" lon="4.06263">
        <ele>588.12</ele>
        <time>2016-01-17T12:07:54Z</time>
      </trkpt>
      <trkpt lat="44.53729" lon="4.06286">
        <ele>587.02</ele>
        <time>2016-01-17T12:08:15Z</time>
      </trkpt>
      <trkpt lat="44.53719" lon="4.06308">
        <ele>586.78</ele>
        <time>2016-01-17T12:08:41Z</time>
      </trkpt>
      <trkpt lat="44.53708" lon="4.06328">
        <ele>590.19</ele>
        <time>2016-01-17T12:09:02Z</time>
      </trkpt>
      <trkpt lat="44.53698" lon="4.06349">
        <ele>588.21</ele>
        <time>2016-01-17T12:09:23Z</time>
      </trkpt>
      <trkpt lat="44.53689" lon="4.06371">
        <ele>586.7</ele>
        <time>2016-01-17T12:09:42Z</time>
      </trkpt>
      <trkpt lat="44.53675" lon="4.06388">
        <ele>585.44</ele>
        <time>2016-01-17T12:10:10Z</time>
      </trkpt>
      <trkpt lat="44.53659" lon="4.06403">
        <ele>586.48</ele>
        <time>2016-01-17T12:10:27Z</time>
      </trkpt>
      <trkpt lat="44.53643" lon="4.06416">
        <ele>586.82</ele>
        <time>2016-01-17T12:10:46Z</time>
      </trkpt>
      <trkpt lat="44.53627" lon="4.06428">
        <ele>590.48</ele>
        <time>2016-01-17T12:10:59Z</time>
      </trkpt>
      <trkpt lat="44.53615" lon="4.06448">
        <ele>594.56</ele>
        <time>2016-01-17T12:11:14Z</time>
      </trkpt>
      <trkpt lat="44.53601" lon="4.06465">
        <ele>591.02</ele>
        <time>2016-01-17T12:11:35Z</time>
      </trkpt>
      <trkpt lat="44.53588" lon="4.06483">
        <ele>586.64</ele>
        <time>2016-01-17T12:11:47Z</time>
      </trkpt>
      <trkpt lat="44.53577" lon="4.06504">
        <ele>579.16</ele>
        <time>2016-01-17T12:12:00Z</time>
      </trkpt>
      <trkpt lat="44.5357" lon="4.06528">
        <ele>577.91</ele>
        <time>2016-01-17T12:12:22Z</time>
      </trkpt>
      <trkpt lat="44.53564" lon="4.06554">
        <ele>578.24</ele>
        <time>2016-01-17T12:12:40Z</time>
      </trkpt>
      <trkpt lat="44.5356" lon="4.06579">
        <ele>571.7</ele>
        <time>2016-01-17T12:12:55Z</time>
      </trkpt>
      <trkpt lat="44.53555" lon="4.06604">
        <ele>566.38</ele>
        <time>2016-01-17T12:13:18Z</time>
      </trkpt>
      <trkpt lat="44.53552" lon="4.06629">
        <ele>562.28</ele>
        <time>2016-01-17T12:13:34Z</time>
      </trkpt>
      <trkpt lat="44.53553" lon="4.06656">
        <ele>561.32</ele>
        <time>2016-01-17T12:13:49Z</time>
      </trkpt>
      <trkpt lat="44.53555" lon="4.06681">
        <ele>561.79</ele>
        <time>2016-01-17T12:14:04Z</time>
      </trkpt>
      <trkpt lat="44.53556" lon="4.06708">
        <ele>571.27</ele>
        <time>2016-01-17T12:15:01Z</time>
      </trkpt>
      <trkpt lat="44.53553" lon="4.06733">
        <ele>570.46</ele>
        <time>2016-01-17T12:17:45Z</time>
      </trkpt>
      <trkpt lat="44.53552" lon="4.06759">
        <ele>565.91</ele>
        <time>2016-01-17T12:18:11Z</time>
      </trkpt>
      <trkpt lat="44.53543" lon="4.06782">
        <ele>562.62</ele>
        <time>2016-01-17T12:18:25Z</time>
      </trkpt>
      <trkpt lat="44.53533" lon="4.06805">
        <ele>565.25</ele>
        <time>2016-01-17T12:18:54Z</time>
      </trkpt>
      <trkpt lat="44.53522" lon="4.06826">
        <ele>562.04</ele>
        <time>2016-01-17T12:19:13Z</time>
      </trkpt>
      <trkpt lat="44.53522" lon="4.06851">
        <ele>556.68</ele>
        <time>2016-01-17T12:19:33Z</time>
      </trkpt>
      <trkpt lat="44.53523" lon="4.06877">
        <ele>564.13</ele>
        <time>2016-01-17T12:19:59Z</time>
      </trkpt>
      <trkpt lat="44.53528" lon="4.06902">
        <ele>565.15</ele>
        <time>2016-01-17T12:20:29Z</time>
      </trkpt>
      <trkpt lat="44.53523" lon="4.06927">
        <ele>566.7</ele>
        <time>2016-01-17T12:20:54Z</time>
      </trkpt>
      <trkpt lat="44.53512" lon="4.06948">
        <ele>561.19</ele>
        <time>2016-01-17T12:21:19Z</time>
      </trkpt>
      <trkpt lat="44.53503" lon="4.06972">
        <ele>558.56</ele>
        <time>2016-01-17T12:21:33Z</time>
      </trkpt>
      <trkpt lat="44.53491" lon="4.0699">
        <ele>555.75</ele>
        <time>2016-01-17T12:21:50Z</time>
      </trkpt>
      <trkpt lat="44.53477" lon="4.07008">
        <ele>555.68</ele>
        <time>2016-01-17T12:22:07Z</time>
      </trkpt>
      <trkpt lat="44.53461" lon="4.07022">
        <ele>552.64</ele>
        <time>2016-01-17T12:22:25Z</time>
      </trkpt>
      <trkpt lat="44.53449" lon="4.07041">
        <ele>553.94</ele>
        <time>2016-01-17T12:22:42Z</time>
      </trkpt>
      <trkpt lat="44.53435" lon="4.07058">
        <ele>551.71</ele>
        <time>2016-01-17T12:23:00Z</time>
      </trkpt>
      <trkpt lat="44.53423" lon="4.07078">
        <ele>548.88</ele>
        <time>2016-01-17T12:23:29Z</time>
      </trkpt>
      <trkpt lat="44.53412" lon="4.071">
        <ele>546.75</ele>
        <time>2016-01-17T12:23:44Z</time>
      </trkpt>
      <trkpt lat="44.53399" lon="4.07118">
        <ele>546.67</ele>
        <time>2016-01-17T12:24:00Z</time>
      </trkpt>
      <trkpt lat="44.53386" lon="4.07136">
        <ele>545.69</ele>
        <time>2016-01-17T12:24:17Z</time>
      </trkpt>
      <trkpt lat="44.53372" lon="4.07154">
        <ele>546.96</ele>
        <time>2016-01-17T12:24:33Z</time>
      </trkpt>
      <trkpt lat="44.53356" lon="4.07168">
        <ele>543.53</ele>
        <time>2016-01-17T12:24:55Z</time>
      </trkpt>
      <trkpt lat="44.53342" lon="4.07184">
        <ele>540.75</ele>
        <time>2016-01-17T12:25:35Z</time>
      </trkpt>
      <trkpt lat="44.5333" lon="4.07205">
        <ele>536.4</ele>
        <time>2016-01-17T12:25:55Z</time>
      </trkpt>
      <trkpt lat="44.53325" lon="4.0723">
        <ele>534.74</ele>
        <time>2016-01-17T12:26:48Z</time>
      </trkpt>
      <trkpt lat="44.53313" lon="4.07251">
        <ele>533.19</ele>
        <time>2016-01-17T12:28:22Z</time>
      </trkpt>
      <trkpt lat="44.53302" lon="4.07271">
        <ele>536.3</ele>
        <time>2016-01-17T12:28:39Z</time>
      </trkpt>
      <trkpt lat="44.53291" lon="4.07292">
        <ele>531.72</ele>
        <time>2016-01-17T12:29:02Z</time>
      </trkpt>
      <trkpt lat="44.53277" lon="4.07309">
        <ele>529.75</ele>
        <time>2016-01-17T12:29:29Z</time>
      </trkpt>
      <trkpt lat="44.53265" lon="4.07329">
        <ele>521.27</ele>
        <time>2016-01-17T12:29:55Z</time>
      </trkpt>
      <trkpt lat="44.5325" lon="4.07346">
        <ele>518.26</ele>
        <time>2016-01-17T12:30:16Z</time>
      </trkpt>
      <trkpt lat="44.53236" lon="4.07363">
        <ele>514.24</ele>
        <time>2016-01-17T12:30:46Z</time>
      </trkpt>
      <trkpt lat="44.53223" lon="4.07382">
        <ele>509.72</ele>
        <time>2016-01-17T12:31:02Z</time>
      </trkpt>
      <trkpt lat="44.53214" lon="4.07404">
        <ele>509.69</ele>
        <time>2016-01-17T12:31:17Z</time>
      </trkpt>
      <trkpt lat="44.53197" lon="4.07415">
        <ele>503.33</ele>
        <time>2016-01-17T12:31:57Z</time>
      </trkpt>
      <trkpt lat="44.5318" lon="4.07407">
        <ele>505.15</ele>
        <time>2016-01-17T12:32:16Z</time>
      </trkpt>
      <trkpt lat="44.53162" lon="4.07414">
        <ele>506.19</ele>
        <time>2016-01-17T12:32:52Z</time>
      </trkpt>
      <trkpt lat="44.53151" lon="4.07435">
        <ele>502.69</ele>
        <time>2016-01-17T12:33:44Z</time>
      </trkpt>
      <trkpt lat="44.53133" lon="4.07427">
        <ele>501.47</ele>
        <time>2016-01-17T12:34:15Z</time>
      </trkpt>
      <trkpt lat="44.53136" lon="4.07401">
        <ele>492.68</ele>
        <time>2016-01-17T12:35:33Z</time>
      </trkpt>
      <trkpt lat="44.53145" lon="4.07378">
        <ele>495.79</ele>
        <time>2016-01-17T12:35:52Z</time>
      </trkpt>
      <trkpt lat="44.53158" lon="4.0736">
        <ele>491.63</ele>
        <time>2016-01-17T12:36:14Z</time>
      </trkpt>
      <trkpt lat="44.53168" lon="4.07339">
        <ele>486.75</ele>
        <time>2016-01-17T12:36:36Z</time>
      </trkpt>
      <trkpt lat="44.53176" lon="4.07316">
        <ele>489.27</ele>
        <time>2016-01-17T12:36:53Z</time>
      </trkpt>
      <trkpt lat="44.53193" lon="4.07309">
        <ele>490.74</ele>
        <time>2016-01-17T12:37:11Z</time>
      </trkpt>
      <trkpt lat="44.53205" lon="4.07288">
        <ele>484.41</ele>
        <time>2016-01-17T12:37:34Z</time>
      </trkpt>
      <trkpt lat="44.53218" lon="4.0727">
        <ele>479.34</ele>
        <time>2016-01-17T12:37:57Z</time>
      </trkpt>
      <trkpt lat="44.53229" lon="4.07249">
        <ele>476.37</ele>
        <time>2016-01-17T12:38:56Z</time>
      </trkpt>
      <trkpt lat="44.53241" lon="4.07227">
        <ele>478.76</ele>
        <time>2016-01-17T12:39:22Z</time>
      </trkpt>
      <trkpt lat="44.53252" lon="4.07207">
        <ele>487.14</ele>
        <time>2016-01-17T12:39:47Z</time>
      </trkpt>
      <trkpt lat="44.53253" lon="4.07181">
        <ele>486.59</ele>
        <time>2016-01-17T12:40:02Z</time>
      </trkpt>
      <trkpt lat="44.53259" lon="4.07157">
        <ele>484.25</ele>
        <time>2016-01-17T12:40:27Z</time>
      </trkpt>
      <trkpt lat="44.5327" lon="4.07136">
        <ele>486.94</ele>
        <time>2016-01-17T12:40:50Z</time>
      </trkpt>
      <trkpt lat="44.53279" lon="4.07114">
        <ele>483.69</ele>
        <time>2016-01-17T12:41:17Z</time>
      </trkpt>
      <trkpt lat="44.53289" lon="4.07091">
        <ele>484.81</ele>
        <time>2016-01-17T12:41:47Z</time>
      </trkpt>
      <trkpt lat="44.53287" lon="4.07065">
        <ele>484.24</ele>
        <time>2016-01-17T12:43:15Z</time>
      </trkpt>
      <trkpt lat="44.53298" lon="4.07045">
        <ele>483.68</ele>
        <time>2016-01-17T12:43:46Z</time>
      </trkpt>
      <trkpt lat="44.53309" lon="4.07024">
        <ele>474.8</ele>
        <time>2016-01-17T12:44:15Z</time>
      </trkpt>
      <trkpt lat="44.5332" lon="4.07004">
        <ele>473.94</ele>
        <time>2016-01-17T12:44:35Z</time>
      </trkpt>
      <trkpt lat="44.53319" lon="4.06978">
        <ele>472.31</ele>
        <time>2016-01-17T12:44:54Z</time>
      </trkpt>
      <trkpt lat="44.53317" lon="4.06952">
        <ele>475.93</ele>
        <time>2016-01-17T12:45:25Z</time>
      </trkpt>
      <trkpt lat="44.53319" lon="4.06926">
        <ele>477.62</ele>
        <time>2016-01-17T12:45:46Z</time>
      </trkpt>
      <trkpt lat="44.53329" lon="4.06904">
        <ele>472.58</ele>
        <time>2016-01-17T12:46:12Z</time>
      </trkpt>
      <trkpt lat="44.5334" lon="4.06884">
        <ele>462.88</ele>
        <time>2016-01-17T12:46:37Z</time>
      </trkpt>
      <trkpt lat="44.53336" lon="4.06859">
        <ele>462.54</ele>
        <time>2016-01-17T12:46:55Z</time>
      </trkpt>
      <trkpt lat="44.53329" lon="4.06834">
        <ele>466.14</ele>
        <time>2016-01-17T12:47:16Z</time>
      </trkpt>
      <trkpt lat="44.53333" lon="4.06808">
        <ele>459.16</ele>
        <time>2016-01-17T12:47:48Z</time>
      </trkpt>
      <trkpt lat="44.53332" lon="4.06783">
        <ele>463.23</ele>
        <time>2016-01-17T12:48:05Z</time>
      </trkpt>
      <trkpt lat="44.53341" lon="4.06759">
        <ele>463.7</ele>
        <time>2016-01-17T12:48:24Z</time>
      </trkpt>
      <trkpt lat="44.53355" lon="4.06743">
        <ele>465.75</ele>
        <time>2016-01-17T12:48:57Z</time>
      </trkpt>
      <trkpt lat="44.53362" lon="4.06719">
        <ele>468.17</ele>
        <time>2016-01-17T12:49:18Z</time>
      </trkpt>
      <trkpt lat="44.53361" lon="4.06692">
        <ele>469.7</ele>
        <time>2016-01-17T12:49:50Z</time>
      </trkpt>
      <trkpt lat="44.5337" lon="4.06669">
        <ele>469.19</ele>
        <time>2016-01-17T12:50:12Z</time>
      </trkpt>
      <trkpt lat="44.53374" lon="4.06644">
        <ele>468.25</ele>
        <time>2016-01-17T12:50:28Z</time>
      </trkpt>
      <trkpt lat="44.53379" lon="4.06618">
        <ele>469.67</ele>
        <time>2016-01-17T12:50:47Z</time>
      </trkpt>
      <trkpt lat="44.53386" lon="4.06594">
        <ele>470.24</ele>
        <time>2016-01-17T12:51:06Z</time>
      </trkpt>
      <trkpt lat="44.53394" lon="4.06571">
        <ele>470.09</ele>
        <time>2016-01-17T12:51:23Z</time>
      </trkpt>
      <trkpt lat="44.53399" lon="4.06546">
        <ele>467.25</ele>
        <time>2016-01-17T12:51:39Z</time>
      </trkpt>
      <trkpt lat="44.53406" lon="4.06522">
        <ele>464.99</ele>
        <time>2016-01-17T12:51:56Z</time>
      </trkpt>
      <trkpt lat="44.5341" lon="4.06496">
        <ele>467.17</ele>
        <time>2016-01-17T12:52:12Z</time>
      </trkpt>
      <trkpt lat="44.5342" lon="4.06474">
        <ele>466.85</ele>
        <time>2016-01-17T12:52:31Z</time>
      </trkpt>
      <trkpt lat="44.53423" lon="4.06449">
        <ele>462.63</ele>
        <time>2016-01-17T12:52:46Z</time>
      </trkpt>
      <trkpt lat="44.53425" lon="4.06422">
        <ele>462.46</ele>
        <time>2016-01-17T12:52:58Z</time>
      </trkpt>
      <trkpt lat="44.53428" lon="4.06397">
        <ele>463.19</ele>
        <time>2016-01-17T12:53:12Z</time>
      </trkpt>
      <trkpt lat="44.53436" lon="4.06373">
        <ele>463.71</ele>
        <time>2016-01-17T12:53:31Z</time>
      </trkpt>
      <trkpt lat="44.5344" lon="4.06348">
        <ele>462.66</ele>
        <time>2016-01-17T12:53:47Z</time>
      </trkpt>
      <trkpt lat="44.53445" lon="4.06322">
        <ele>461.49</ele>
        <time>2016-01-17T12:54:04Z</time>
      </trkpt>
      <trkpt lat="44.53452" lon="4.06297">
        <ele>464.68</ele>
        <time>2016-01-17T12:54:21Z</time>
      </trkpt>
      <trkpt lat="44.53456" lon="4.06273">
        <ele>466.25</ele>
        <time>2016-01-17T12:54:37Z</time>
      </trkpt>
      <trkpt lat="44.53456" lon="4.06246">
        <ele>469.04</ele>
        <time>2016-01-17T12:54:53Z</time>
      </trkpt>
      <trkpt lat="44.53444" lon="4.06224">
        <ele>476.39</ele>
        <time>2016-01-17T12:55:05Z</time>
      </trkpt>
      <trkpt lat="44.53431" lon="4.06206">
        <ele>474.36</ele>
        <time>2016-01-17T12:55:17Z</time>
      </trkpt>
      <trkpt lat="44.53417" lon="4.06188">
        <ele>475.44</ele>
        <time>2016-01-17T12:55:31Z</time>
      </trkpt>
      <trkpt lat="44.53408" lon="4.06165">
        <ele>473.69</ele>
        <time>2016-01-17T12:55:46Z</time>
      </trkpt>
      <trkpt lat="44.53397" lon="4.06143">
        <ele>470.19</ele>
        <time>2016-01-17T12:56:03Z</time>
      </trkpt>
      <trkpt lat="44.53388" lon="4.06119">
        <ele>468.76</ele>
        <time>2016-01-17T12:56:21Z</time>
      </trkpt>
      <trkpt lat="44.5338" lon="4.06096">
        <ele>463.73</ele>
        <time>2016-01-17T12:56:39Z</time>
      </trkpt>
      <trkpt lat="44.53367" lon="4.06076">
        <ele>453.75</ele>
        <time>2016-01-17T12:56:57Z</time>
      </trkpt>
      <trkpt lat="44.53355" lon="4.06058">
        <ele>461.41</ele>
        <time>2016-01-17T12:57:10Z</time>
      </trkpt>
      <trkpt lat="44.53339" lon="4.06044">
        <ele>462.64</ele>
        <time>2016-01-17T12:57:33Z</time>
      </trkpt>
      <trkpt lat="44.53322" lon="4.06032">
        <ele>463.44</ele>
        <time>2016-01-17T12:57:49Z</time>
      </trkpt>
      <trkpt lat="44.53306" lon="4.06018">
        <ele>460.53</ele>
        <time>2016-01-17T12:58:05Z</time>
      </trkpt>
      <trkpt lat="44.53295" lon="4.05997">
        <ele>461.38</ele>
        <time>2016-01-17T12:58:23Z</time>
      </trkpt>
      <trkpt lat="44.53305" lon="4.05974">
        <ele>460.53</ele>
        <time>2016-01-17T12:58:40Z</time>
      </trkpt>
      <trkpt lat="44.53314" lon="4.05952">
        <ele>460.88</ele>
        <time>2016-01-17T12:58:56Z</time>
      </trkpt>
      <trkpt lat="44.53326" lon="4.05931">
        <ele>460.2</ele>
        <time>2016-01-17T12:59:13Z</time>
      </trkpt>
      <trkpt lat="44.5334" lon="4.05913">
        <ele>458.68</ele>
        <time>2016-01-17T12:59:29Z</time>
      </trkpt>
      <trkpt lat="44.53352" lon="4.05893">
        <ele>454.86</ele>
        <time>2016-01-17T12:59:45Z</time>
      </trkpt>
      <trkpt lat="44.53368" lon="4.05879">
        <ele>456.59</ele>
        <time>2016-01-17T13:00:01Z</time>
      </trkpt>
      <trkpt lat="44.5338" lon="4.05859">
        <ele>459.06</ele>
        <time>2016-01-17T13:00:16Z</time>
      </trkpt>
      <trkpt lat="44.53391" lon="4.05839">
        <ele>458.56</ele>
        <time>2016-01-17T13:00:32Z</time>
      </trkpt>
      <trkpt lat="44.53398" lon="4.05815">
        <ele>458.38</ele>
        <time>2016-01-17T13:00:47Z</time>
      </trkpt>
      <trkpt lat="44.5341" lon="4.05795">
        <ele>455.19</ele>
        <time>2016-01-17T13:01:02Z</time>
      </trkpt>
      <trkpt lat="44.53421" lon="4.05774">
        <ele>448.11</ele>
        <time>2016-01-17T13:01:18Z</time>
      </trkpt>
      <trkpt lat="44.53431" lon="4.05753">
        <ele>448.2</ele>
        <time>2016-01-17T13:01:31Z</time>
      </trkpt>
      <trkpt lat="44.53436" lon="4.05728">
        <ele>451.24</ele>
        <time>2016-01-17T13:01:51Z</time>
      </trkpt>
      <trkpt lat="44.53445" lon="4.05706">
        <ele>451.67</ele>
        <time>2016-01-17T13:02:06Z</time>
      </trkpt>
      <trkpt lat="44.53461" lon="4.05692">
        <ele>444.3</ele>
        <time>2016-01-17T13:02:45Z</time>
      </trkpt>
      <trkpt lat="44.53479" lon="4.05685">
        <ele>437.82</ele>
        <time>2016-01-17T13:03:02Z</time>
      </trkpt>
      <trkpt lat="44.5349" lon="4.05664">
        <ele>432.81</ele>
        <time>2016-01-17T13:03:16Z</time>
      </trkpt>
      <trkpt lat="44.53491" lon="4.05638">
        <ele>437.65</ele>
        <time>2016-01-17T13:03:31Z</time>
      </trkpt>
      <trkpt lat="44.53484" lon="4.05613">
        <ele>440.54</ele>
        <time>2016-01-17T13:03:46Z</time>
      </trkpt>
      <trkpt lat="44.53481" lon="4.05588">
        <ele>444.23</ele>
        <time>2016-01-17T13:04:06Z</time>
      </trkpt>
      <trkpt lat="44.53471" lon="4.05567">
        <ele>453.23</ele>
        <time>2016-01-17T13:04:44Z</time>
      </trkpt>
      <trkpt lat="44.53456" lon="4.05551">
        <ele>453.53</ele>
        <time>2016-01-17T13:04:59Z</time>
      </trkpt>
      <trkpt lat="44.5344" lon="4.0554">
        <ele>451.6</ele>
        <time>2016-01-17T13:05:39Z</time>
      </trkpt>
      <trkpt lat="44.53422" lon="4.05534">
        <ele>451.21</ele>
        <time>2016-01-17T13:06:08Z</time>
      </trkpt>
      <trkpt lat="44.53404" lon="4.05539">
        <ele>455.7</ele>
        <time>2016-01-17T13:06:34Z</time>
      </trkpt>
      <trkpt lat="44.53421" lon="4.05529">
        <ele>455.39</ele>
        <time>2016-01-17T13:07:13Z</time>
      </trkpt>
      <trkpt lat="44.53426" lon="4.05504">
        <ele>468.75</ele>
        <time>2016-01-17T13:07:47Z</time>
      </trkpt>
      <trkpt lat="44.53408" lon="4.05496">
        <ele>474.01</ele>
        <time>2016-01-17T13:08:19Z</time>
      </trkpt>
      <trkpt lat="44.5339" lon="4.05494">
        <ele>479.18</ele>
        <time>2016-01-17T13:09:05Z</time>
      </trkpt>
      <trkpt lat="44.53372" lon="4.05496">
        <ele>481.68</ele>
        <time>2016-01-17T13:09:44Z</time>
      </trkpt>
      <trkpt lat="44.53358" lon="4.05481">
        <ele>484.07</ele>
        <time>2016-01-17T13:10:28Z</time>
      </trkpt>
      <trkpt lat="44.53362" lon="4.05456">
        <ele>488.98</ele>
        <time>2016-01-17T13:11:02Z</time>
      </trkpt>
      <trkpt lat="44.53356" lon="4.05433">
        <ele>494.44</ele>
        <time>2016-01-17T13:13:08Z</time>
      </trkpt>
      <trkpt lat="44.53338" lon="4.05433">
        <ele>497.87</ele>
        <time>2016-01-17T13:13:39Z</time>
      </trkpt>
      <trkpt lat="44.5332" lon="4.05433">
        <ele>499.81</ele>
        <time>2016-01-17T13:14:15Z</time>
      </trkpt>
      <trkpt lat="44.53301" lon="4.05434">
        <ele>502.24</ele>
        <time>2016-01-17T13:14:35Z</time>
      </trkpt>
      <trkpt lat="44.53284" lon="4.05429">
        <ele>500.25</ele>
        <time>2016-01-17T13:15:11Z</time>
      </trkpt>
      <trkpt lat="44.53265" lon="4.05425">
        <ele>511.75</ele>
        <time>2016-01-17T13:15:50Z</time>
      </trkpt>
      <trkpt lat="44.53248" lon="4.05418">
        <ele>515.94</ele>
        <time>2016-01-17T13:16:28Z</time>
      </trkpt>
      <trkpt lat="44.5323" lon="4.0541">
        <ele>524.43</ele>
        <time>2016-01-17T13:17:13Z</time>
      </trkpt>
      <trkpt lat="44.53235" lon="4.05385">
        <ele>530.94</ele>
        <time>2016-01-17T13:17:57Z</time>
      </trkpt>
      <trkpt lat="44.53216" lon="4.05385">
        <ele>535.21</ele>
        <time>2016-01-17T13:21:49Z</time>
      </trkpt>
      <trkpt lat="44.532" lon="4.05399">
        <ele>536.16</ele>
        <time>2016-01-17T13:22:09Z</time>
      </trkpt>
      <trkpt lat="44.53188" lon="4.05417">
        <ele>539.38</ele>
        <time>2016-01-17T13:22:32Z</time>
      </trkpt>
      <trkpt lat="44.53171" lon="4.05428">
        <ele>544.06</ele>
        <time>2016-01-17T13:23:03Z</time>
      </trkpt>
      <trkpt lat="44.53152" lon="4.05426">
        <ele>543.1</ele>
        <time>2016-01-17T13:23:46Z</time>
      </trkpt>
      <trkpt lat="44.53134" lon="4.05431">
        <ele>549.86</ele>
        <time>2016-01-17T13:24:19Z</time>
      </trkpt>
      <trkpt lat="44.53116" lon="4.05434">
        <ele>547.96</ele>
        <time>2016-01-17T13:24:49Z</time>
      </trkpt>
      <trkpt lat="44.53098" lon="4.05437">
        <ele>547.77</ele>
        <time>2016-01-17T13:25:31Z</time>
      </trkpt>
      <trkpt lat="44.53092" lon="4.05413">
        <ele>556.78</ele>
        <time>2016-01-17T13:26:16Z</time>
      </trkpt>
      <trkpt lat="44.53079" lon="4.05395">
        <ele>562.71</ele>
        <time>2016-01-17T13:26:44Z</time>
      </trkpt>
      <trkpt lat="44.53065" lon="4.0538">
        <ele>561.57</ele>
        <time>2016-01-17T13:27:24Z</time>
      </trkpt>
      <trkpt lat="44.53075" lon="4.05359">
        <ele>565.72</ele>
        <time>2016-01-17T13:28:05Z</time>
      </trkpt>
      <trkpt lat="44.53077" lon="4.05333">
        <ele>573.68</ele>
        <time>2016-01-17T13:28:57Z</time>
      </trkpt>
      <trkpt lat="44.53083" lon="4.05309">
        <ele>576.87</ele>
        <time>2016-01-17T13:29:24Z</time>
      </trkpt>
      <trkpt lat="44.53083" lon="4.05283">
        <ele>578.69</ele>
        <time>2016-01-17T13:30:11Z</time>
      </trkpt>
      <trkpt lat="44.53075" lon="4.0526">
        <ele>584.04</ele>
        <time>2016-01-17T13:31:22Z</time>
      </trkpt>
      <trkpt lat="44.53068" lon="4.05236">
        <ele>586.42</ele>
        <time>2016-01-17T13:32:16Z</time>
      </trkpt>
      <trkpt lat="44.53037" lon="4.05209">
        <ele>580.45</ele>
        <time>2016-01-17T13:33:19Z</time>
      </trkpt>
      <trkpt lat="44.53029" lon="4.05185">
        <ele>595.21</ele>
        <time>2016-01-17T13:34:04Z</time>
      </trkpt>
      <trkpt lat="44.53028" lon="4.05159">
        <ele>594.26</ele>
        <time>2016-01-17T13:34:57Z</time>
      </trkpt>
      <trkpt lat="44.53019" lon="4.05137">
        <ele>585.67</ele>
        <time>2016-01-17T13:35:47Z</time>
      </trkpt>
      <trkpt lat="44.53026" lon="4.05115">
        <ele>590.7</ele>
        <time>2016-01-17T13:37:08Z</time>
      </trkpt>
      <trkpt lat="44.53039" lon="4.05096">
        <ele>590.51</ele>
        <time>2016-01-17T13:37:25Z</time>
      </trkpt>
      <trkpt lat="44.53044" lon="4.0507">
        <ele>588.86</ele>
        <time>2016-01-17T13:37:40Z</time>
      </trkpt>
      <trkpt lat="44.53048" lon="4.05046">
        <ele>588.69</ele>
        <time>2016-01-17T13:39:08Z</time>
      </trkpt>
      <trkpt lat="44.53045" lon="4.05019">
        <ele>591.19</ele>
        <time>2016-01-17T13:39:45Z</time>
      </trkpt>
      <trkpt lat="44.53039" lon="4.04995">
        <ele>593.48</ele>
        <time>2016-01-17T13:40:03Z</time>
      </trkpt>
      <trkpt lat="44.53034" lon="4.0497">
        <ele>599.72</ele>
        <time>2016-01-17T13:40:20Z</time>
      </trkpt>
      <trkpt lat="44.53035" lon="4.04945">
        <ele>604.68</ele>
        <time>2016-01-17T13:40:39Z</time>
      </trkpt>
      <trkpt lat="44.53035" lon="4.04919">
        <ele>608.14</ele>
        <time>2016-01-17T13:40:59Z</time>
      </trkpt>
      <trkpt lat="44.53035" lon="4.04893">
        <ele>608.69</ele>
        <time>2016-01-17T13:41:18Z</time>
      </trkpt>
      <trkpt lat="44.53038" lon="4.04868">
        <ele>611.72</ele>
        <time>2016-01-17T13:41:38Z</time>
      </trkpt>
      <trkpt lat="44.53047" lon="4.04845">
        <ele>613.95</ele>
        <time>2016-01-17T13:41:57Z</time>
      </trkpt>
      <trkpt lat="44.53055" lon="4.04821">
        <ele>614.2</ele>
        <time>2016-01-17T13:42:17Z</time>
      </trkpt>
      <trkpt lat="44.53064" lon="4.04798">
        <ele>614.44</ele>
        <time>2016-01-17T13:42:37Z</time>
      </trkpt>
      <trkpt lat="44.53073" lon="4.04776">
        <ele>616.65</ele>
        <time>2016-01-17T13:42:55Z</time>
      </trkpt>
      <trkpt lat="44.53078" lon="4.04751">
        <ele>616.8</ele>
        <time>2016-01-17T13:43:13Z</time>
      </trkpt>
      <trkpt lat="44.53088" lon="4.04729">
        <ele>625.54</ele>
        <time>2016-01-17T13:43:31Z</time>
      </trkpt>
      <trkpt lat="44.53095" lon="4.04705">
        <ele>617.21</ele>
        <time>2016-01-17T13:43:50Z</time>
      </trkpt>
      <trkpt lat="44.53098" lon="4.0468">
        <ele>621.11</ele>
        <time>2016-01-17T13:44:05Z</time>
      </trkpt>
      <trkpt lat="44.53103" lon="4.04655">
        <ele>624.14</ele>
        <time>2016-01-17T13:44:25Z</time>
      </trkpt>
      <trkpt lat="44.53111" lon="4.04631">
        <ele>625.43</ele>
        <time>2016-01-17T13:44:44Z</time>
      </trkpt>
      <trkpt lat="44.53118" lon="4.04607">
        <ele>627.95</ele>
        <time>2016-01-17T13:45:05Z</time>
      </trkpt>
      <trkpt lat="44.53126" lon="4.04584">
        <ele>633.75</ele>
        <time>2016-01-17T13:45:24Z</time>
      </trkpt>
      <trkpt lat="44.53126" lon="4.04559">
        <ele>637.22</ele>
        <time>2016-01-17T13:45:44Z</time>
      </trkpt>
      <trkpt lat="44.53111" lon="4.04544">
        <ele>633.25</ele>
        <time>2016-01-17T13:46:06Z</time>
      </trkpt>
      <trkpt lat="44.53092" lon="4.04543">
        <ele>635.93</ele>
        <time>2016-01-17T13:46:21Z</time>
      </trkpt>
      <trkpt lat="44.53077" lon="4.04529">
        <ele>636.24</ele>
        <time>2016-01-17T13:46:43Z</time>
      </trkpt>
      <trkpt lat="44.53061" lon="4.04516">
        <ele>633.97</ele>
        <time>2016-01-17T13:47:04Z</time>
      </trkpt>
      <trkpt lat="44.53043" lon="4.04513">
        <ele>638.79</ele>
        <time>2016-01-17T13:47:20Z</time>
      </trkpt>
      <trkpt lat="44.53024" lon="4.04513">
        <ele>645.68</ele>
        <time>2016-01-17T13:47:55Z</time>
      </trkpt>
      <trkpt lat="44.53006" lon="4.0451">
        <ele>650.55</ele>
        <time>2016-01-17T13:48:11Z</time>
      </trkpt>
      <trkpt lat="44.52989" lon="4.04502">
        <ele>647.06</ele>
        <time>2016-01-17T13:48:27Z</time>
      </trkpt>
      <trkpt lat="44.52974" lon="4.04487">
        <ele>638.56</ele>
        <time>2016-01-17T13:48:45Z</time>
      </trkpt>
      <trkpt lat="44.52962" lon="4.04468">
        <ele>633.44</ele>
        <time>2016-01-17T13:49:06Z</time>
      </trkpt>
      <trkpt lat="44.52945" lon="4.0446">
        <ele>640.58</ele>
        <time>2016-01-17T13:49:24Z</time>
      </trkpt>
      <trkpt lat="44.52929" lon="4.04474">
        <ele>651.18</ele>
        <time>2016-01-17T13:49:45Z</time>
      </trkpt>
    </trkseg>
  </trk>
</gpx>